Cincinnati, Ohio
Current Conditions -  °F | °C
As of 2:53 AM on Saturday 29 Nov 2014 (Local Time) from KLUK Reporting Station
Clear Clear  
Wind Chill: 27°   Ceiling: Unl
Heat Index: 34°   Visibility: 10mi
Dew Point: 20°   Wind: 9mph
Humidity: 56%   Direction: 190°S
Pressure: 30.11"   Gusts: NA
Location:  39.11°N, 84.5°W
Report Text: KLUK 290753Z AUTO 19008KT 10SM CLR 01/M07 A3011 RMK AO2 SLP199 T00111067
Loading
Personal Weather Stations






























Interactive Weather Map New forecast layout! Learn more

10-Day Weather Forecast

Advertisements
Track Severe Weather on mobile